Time;durP1;ratioP1;P1;durP2;ratioP2;P2;SDS_P1;SDS_P2;PMS_P1;PMS_P2;Temp;Humidity;BMP_temperature;BMP_pressure;BME280_temperature;BME280_humidity;BME280_pressure;Samples;Min_cycle;Max_cycle;Signal;HPM_P1;HPM_P2
2021/05/06 00:33:19;;;;;;;;;;;;;;;12.52;100.00;98082.45;1800166;79;20149;-72
2021/05/06 00:35:48;;;;;;;;;;;;;;;12.50;100.00;98079.81;1800284;79;20157;-73
2021/05/06 00:38:20;;;;;;;;;;;;;;;12.50;100.00;98070.39;1800294;79;20220;-72
2021/05/06 00:41:23;;;;;;;;;;;;;;;12.51;100.00;98082.73;1800092;79;20129;-71
2021/05/06 00:56:55;;;;;;;;;;;;;;;12.38;100.00;98084.36;1821917;78;22380;-70
2021/05/06 01:02:27;;;;;;;;;;;;;;;12.28;100.00;98075.95;1821983;78;20144;-71
2021/05/06 01:05:11;;;;;;;;;;;;;;;12.26;100.00;98083.52;1821322;78;20363;-71
2021/05/06 01:10:00;;;;;;;;;;;;;;;12.13;100.00;98068.20;1821883;78;21376;-72
2021/05/06 01:12:23;;;;;;;;;;;;;;;12.08;100.00;98069.62;1821662;78;20177;-70
2021/05/06 01:14:51;;;;;;;;;;;;;;;12.07;100.00;98060.76;1821884;78;20224;-70
2021/05/06 01:17:19;;;;;;;;;;;;;;;12.01;100.00;98052.01;1821938;78;20143;-71
2021/05/06 01:19:48;;;;;;;;;;;;;;;11.94;100.00;98051.61;1816971;78;20141;-72
2021/05/06 01:22:16;;;;;;;;;;;;;;;11.87;100.00;98072.72;1821996;78;21225;-72
2021/05/06 01:24:50;;;;;;;;;;;;;;;11.78;100.00;98060.50;1821899;78;20172;-71
2021/05/06 01:27:18;;;;;;;;;;;;;;;11.69;100.00;98065.52;1821870;78;20514;-71
2021/05/06 01:29:58;;;;;;;;;;;;;;;11.61;100.00;98058.91;1821867;78;20140;-71
2021/05/06 01:32:29;;;;;;;;;;;;;;;11.51;100.00;98066.64;1821840;78;20522;-72
2021/05/06 01:34:58;;;;;;;;;;;;;;;11.53;100.00;98050.20;1821508;78;21197;-70
2021/05/06 01:48:13;;;;;;;;;;;;;;;11.17;100.00;98030.70;1821974;78;22121;-71
2021/05/06 01:50:50;;;;;;;;;;;;;;;11.09;100.00;98033.48;1817823;78;20136;-71
2021/05/06 01:58:39;;;;;;;;;;;;;;;10.98;100.00;98039.34;1821980;78;20128;-71
2021/05/06 02:01:07;;;;;;;;;;;;;;;10.95;100.00;98036.70;1821834;78;21757;-70
2021/05/06 02:03:37;;;;;;;;;;;;;;;10.91;100.00;98041.84;1821943;78;20124;-71
2021/05/06 02:06:05;;;;;;;;;;;;;;;10.86;100.00;98027.16;1821958;78;20506;-71
2021/05/06 02:08:34;;;;;;;;;;;;;;;10.84;100.00;98044.64;1821894;78;20231;-71
2021/05/06 02:11:04;;;;;;;;;;;;;;;10.82;100.00;98051.63;1821822;78;20513;-71
2021/05/06 02:13:34;;;;;;;;;;;;;;;10.83;100.00;98069.35;1817095;78;21354;-70
2021/05/06 02:16:14;;;;;;;;;;;;;;;10.82;100.00;98069.08;1821849;78;20157;-70
2021/05/06 02:18:37;;;;;;;;;;;;;;;10.79;100.00;98059.48;1821802;78;20172;-70
2021/05/06 02:21:04;;;;;;;;;;;;;;;10.73;100.00;98061.45;1821938;78;20526;-69
2021/05/06 02:23:33;;;;;;;;;;;;;;;10.69;100.00;98051.04;1821904;78;20160;-70
2021/05/06 02:26:01;;;;;;;;;;;;;;;10.69;100.00;98064.45;1821892;78;21140;-70
2021/05/06 02:28:29;;;;;;;;;;;;;;;10.65;100.00;98064.22;1821847;78;20190;-70
2021/05/06 02:30:57;;;;;;;;;;;;;;;10.65;100.00;98066.11;1821872;78;20141;-70
2021/05/06 02:33:25;;;;;;;;;;;;;;;10.65;100.00;98064.22;1821900;78;20144;-70
2021/05/06 02:35:54;;;;;;;;;;;;;;;10.69;100.00;98059.88;1821936;78;20160;-70
2021/05/06 02:38:22;;;;;;;;;;;;;;;10.69;100.00;98063.11;1821927;78;21382;-70
2021/05/06 02:40:49;;;;;;;;;;;;;;;10.71;100.00;98073.02;1821887;78;20145;-70
2021/05/06 02:43:17;;;;;;;;;;;;;;;10.75;100.00;98069.98;1821858;78;20140;-70
2021/05/06 02:45:45;;;;;;;;;;;;;;;10.73;100.00;98074.32;1821867;78;20161;-70
2021/05/06 02:48:12;;;;;;;;;;;;;;;10.73;100.00;98076.21;1821898;78;20538;-69
2021/05/06 02:50:46;;;;;;;;;;;;;;;10.77;100.00;98078.55;1823739;78;21552;-70
2021/05/06 02:53:14;;;;;;;;;;;;;;;10.80;100.00;98074.48;1830773;78;20195;-70
2021/05/06 02:58:18;;;;;;;;;;;;;;;10.83;100.00;98076.61;1830835;78;20148;-70
2021/05/06 03:03:30;;;;;;;;;;;;;;;10.86;100.00;98082.73;1830815;78;22181;-70
2021/05/06 03:05:56;;;;;;;;;;;;;;;10.86;100.00;98090.23;1830793;78;20140;-72
2021/05/06 03:08:30;;;;;;;;;;;;;;;10.91;100.00;98082.66;1830797;78;20168;-72
2021/05/06 03:24:29;;;;;;;;;;;;;;;11.00;100.00;98113.13;1830920;78;20510;-71
2021/05/06 03:26:56;;;;;;;;;;;;;;;10.97;100.00;98098.92;1830313;78;20133;-72
2021/05/06 03:29:41;;;;;;;;;;;;;;;11.01;100.00;98106.66;1830822;78;22105;-72
2021/05/06 03:34:48;;;;;;;;;;;;;;;11.01;100.00;98130.81;1830876;78;20505;-71
2021/05/06 03:42:55;;;;;;;;;;;;;;;11.05;100.00;98145.78;1830745;78;22180;-71
2021/05/06 04:36:31;;;;;;;;;;;;;;;10.54;100.00;98259.98;1822011;78;22281;-74
2021/05/06 04:38:48;;;;;;;;;;;;;;;10.55;100.00;98265.59;1821318;78;21003;-72
2021/05/06 04:54:38;;;;;;;;;;;;;;;10.72;100.00;98306.19;1821932;78;20152;-74
2021/05/06 05:05:22;;;;;;;;;;;;;;;10.57;100.00;98321.11;1821768;78;20263;-74
2021/05/06 05:07:53;;;;;;;;;;;;;;;10.49;100.00;98333.26;1821817;78;20200;-74
2021/05/06 05:10:24;;;;;;;;;;;;;;;10.50;100.00;98342.89;1821742;78;20164;-72
2021/05/06 05:13:12;;;;;;;;;;;;;;;10.46;100.00;98347.77;1819879;77;20261;-72
2021/05/06 05:18:27;;;;;;;;;;;;;;;10.26;100.00;98371.51;1809007;79;20141;-72
2021/05/06 05:26:16;;;;;;;;;;;;;;;9.86;100.00;98350.08;1794029;77;20544;-75
2021/05/06 05:28:43;;;;;;;;;;;;;;;9.77;100.00;98387.12;1807281;78;21188;-72
2021/05/06 05:31:32;;;;;;;;;;;;;;;9.66;100.00;98393.87;1800213;78;20295;-72
2021/05/06 05:34:15;;;;;;;;;;;;;;;9.63;100.00;98394.98;1820196;78;20161;-72
2021/05/06 05:36:34;;;;;;;;;;;;;;;9.66;100.00;98387.18;1816385;78;20537;-75
2021/05/06 05:39:44;;;;;;;;;;;;;;;9.74;100.00;98402.41;1816849;78;20310;-73
2021/05/06 05:41:59;;;;;;;;;;;;;;;9.85;100.00;98413.36;1786434;78;21400;-74
2021/05/06 05:55:01;;;;;;;;;;;;;;;9.69;100.00;98476.13;1699350;82;21545;-73
2021/05/06 05:57:32;;;;;;;;;;;;;;;9.71;100.00;98471.30;1751657;81;20238;-73
2021/05/06 06:00:00;;;;;;;;;;;;;;;9.69;100.00;98470.23;1753952;80;20520;-73
2021/05/06 06:02:28;;;;;;;;;;;;;;;9.81;100.00;98471.25;1752889;81;20318;-73
2021/05/06 06:05:01;;;;;;;;;;;;;;;9.86;100.00;98476.59;1753248;80;20313;-72
2021/05/06 06:39:09;;;;;;;;;;;;;;;10.73;100.00;98497.56;1635821;83;20342;31
2021/05/06 06:41:44;;;;;;;;;;;;;;;10.88;100.00;98499.32;1617697;87;20439;-71
2021/05/06 06:44:29;;;;;;;;;;;;;;;11.03;100.00;98507.78;1846646;76;20187;-71
2021/05/06 06:47:01;;;;;;;;;;;;;;;11.25;99.97;98508.66;1844712;77;20746;-73
2021/05/06 06:49:37;;;;;;;;;;;;;;;11.58;99.08;98518.50;1823818;78;21182;-73
2021/05/06 07:38:35;;;;;;;;;;;;;;;;;;;;;
2021/05/06 09:38:41;;;;;;;;;;;;;;;;;;;;;
2021/05/06 10:38:45;;;;;;;;;;;;;;;;;;;;;
2021/05/06 11:38:21;;;;;;;;;;;;;;;16.84;37.69;98761.66;1733872;79;20170;-71
2021/05/06 12:42:50;;;;;;;;;;;;;;;15.49;40.09;98769.89;1852585;77;20233;-71
2021/05/06 12:45:21;;;;;;;;;;;;;;;15.71;38.98;98782.11;1821774;78;20510;-72
2021/05/06 12:47:49;;;;;;;;;;;;;;;15.83;36.78;98777.51;1812473;78;21334;-71
2021/05/06 12:50:32;;;;;;;;;;;;;;;15.94;37.34;98778.84;1812173;78;21056;-72
2021/05/06 12:53:10;;;;;;;;;;;;;;;16.02;37.94;98781.36;1811939;79;20219;-72
2021/05/06 12:55:39;;;;;;;;;;;;;;;15.86;36.74;98779.59;1812124;79;20125;-72
2021/05/06 12:58:36;;;;;;;;;;;;;;;15.77;37.05;98785.48;1812901;79;20495;-73
2021/05/06 13:01:12;;;;;;;;;;;;;;;15.80;36.73;98766.75;1743312;81;21489;-74
2021/05/06 13:03:43;;;;;;;;;;;;;;;15.95;36.12;98786.41;1744171;81;20554;-74
2021/05/06 13:07:07;;;;;;;;;;;;;;;15.93;35.82;98779.97;1890250;76;20164;-70
2021/05/06 13:39:28;;;;;;;;;;;;;;;;;;;;;
2021/05/06 14:11:55;;;;;;;;;;;;;;;14.81;36.07;98813.45;1706043;80;20578;-67
2021/05/06 14:56:41;;;;;;;;;;;;;;;16.06;29.87;98822.95;1721501;77;86785;-71
2021/05/06 14:59:18;;;;;;;;;;;;;;;16.18;29.80;98821.84;1704925;84;20157;-70
2021/05/06 15:01:50;;;;;;;;;;;;;;;16.19;29.90;98815.34;1706847;84;20541;-71
2021/05/06 15:04:32;;;;;;;;;;;;;;;15.59;30.49;98823.75;1701707;84;20277;-70
2021/05/06 15:07:00;;;;;;;;;;;;;;;15.26;29.80;98809.58;1700284;84;20631;-73
2021/05/06 15:09:29;;;;;;;;;;;;;;;15.52;29.73;98824.71;1702818;84;21197;-70
2021/05/06 15:11:57;;;;;;;;;;;;;;;15.24;29.21;98812.60;1702119;84;20705;-72
2021/05/06 15:14:25;;;;;;;;;;;;;;;15.07;28.89;98818.62;1702705;83;20524;-71
2021/05/06 15:16:53;;;;;;;;;;;;;;;15.19;29.42;98827.02;1702700;84;20250;-72
2021/05/06 15:19:22;;;;;;;;;;;;;;;15.61;29.68;98823.69;1701953;84;20542;-72
2021/05/06 15:22:01;;;;;;;;;;;;;;;;;;;;;
2021/05/06 15:24:31;;;;;;;;;;;;;;;16.01;28.87;98824.44;1701271;83;20635;-70
2021/05/06 15:26:59;;;;;;;;;;;;;;;16.03;28.58;98839.82;1699954;84;21068;-73
2021/05/06 15:29:47;;;;;;;;;;;;;;;15.88;28.39;98835.56;1700065;84;20237;-72
2021/05/06 15:32:12;;;;;;;;;;;;;;;15.69;28.73;98837.04;1699537;84;20332;-73
2021/05/06 15:34:52;;;;;;;;;;;;;;;15.46;28.67;98829.97;1700226;83;21388;-71
2021/05/06 15:37:25;;;;;;;;;;;;;;;15.55;28.59;98841.67;1699111;83;20307;-72
2021/05/06 15:39:52;;;;;;;;;;;;;;;15.65;29.02;98838.22;1699272;84;20581;-71
2021/05/06 15:42:20;;;;;;;;;;;;;;;15.79;27.93;98839.54;1699291;84;20283;-72
2021/05/06 15:44:48;;;;;;;;;;;;;;;15.78;27.70;98843.92;1699255;84;20279;-73
2021/05/06 15:47:20;;;;;;;;;;;;;;;15.65;28.22;98851.73;1698837;83;21373;-73
2021/05/06 15:49:57;;;;;;;;;;;;;;;15.60;28.16;98845.62;1698930;84;20308;-68
2021/05/06 15:52:26;;;;;;;;;;;;;;;15.38;28.41;98839.04;1698953;84;20241;-74
2021/05/06 15:54:54;;;;;;;;;;;;;;;15.10;28.97;98847.73;1698781;84;20324;-75
2021/05/06 15:57:22;;;;;;;;;;;;;;;14.87;29.02;98839.27;1700549;83;20515;-73
2021/05/06 16:00:08;;;;;;;;;;;;;;;14.64;30.06;98828.89;1701078;84;21360;-74
2021/05/06 16:02:50;;;;;;;;;;;;;;;14.50;30.56;98850.43;1700064;83;20308;-73
2021/05/06 16:05:37;;;;;;;;;;;;;;;14.29;29.80;98842.69;1853592;77;20177;-74
2021/05/06 16:08:04;;;;;;;;;;;;;;;14.12;29.43;98849.17;1832485;78;20499;-71
2021/05/06 16:10:54;;;;;;;;;;;;;;;13.98;29.24;98840.22;1834815;78;21142;-73
2021/05/06 16:13:25;;;;;;;;;;;;;;;13.83;29.14;98845.30;1835654;76;20554;-69
2021/05/06 16:15:54;;;;;;;;;;;;;;;13.72;28.35;98849.50;1834635;78;20766;-74
2021/05/06 16:18:22;;;;;;;;;;;;;;;13.63;28.33;98853.94;1793517;78;20221;-73
2021/05/06 16:20:51;;;;;;;;;;;;;;;13.56;28.82;98852.14;1789284;79;20115;-74
2021/05/06 16:23:20;;;;;;;;;;;;;;;13.50;29.30;98853.31;1808316;78;21356;-73
2021/05/06 16:25:50;;;;;;;;;;;;;;;13.39;29.21;98847.23;1789473;79;20141;-72
2021/05/06 16:28:18;;;;;;;;;;;;;;;13.39;29.43;98863.41;1793718;78;20216;-73
2021/05/06 16:30:56;;;;;;;;;;;;;;;13.32;30.06;98851.38;1789062;80;20175;-75
2021/05/06 16:33:36;;;;;;;;;;;;;;;13.26;31.02;98856.80;1733980;82;20253;-76
2021/05/06 16:36:12;;;;;;;;;;;;;;;13.24;31.93;98860.33;1735066;82;21205;-73
2021/05/06 16:38:38;;;;;;;;;;;;;;;13.21;32.25;98861.46;1733655;82;20293;-73
2021/05/06 16:41:06;;;;;;;;;;;;;;;13.29;32.49;98856.80;1734874;82;20623;-74
2021/05/06 16:44:03;;;;;;;;;;;;;;;13.24;32.51;98852.23;1735309;82;20269;-72
2021/05/06 16:46:51;;;;;;;;;;;;;;;13.12;32.95;98856.44;1745873;81;20245;-76
2021/05/06 16:49:24;;;;;;;;;;;;;;;13.02;33.28;98864.09;1767069;80;21347;-73
2021/05/06 16:52:26;;;;;;;;;;;;;;;12.94;33.63;98865.53;1750081;81;20165;-73
2021/05/06 18:39:54;;;;;;;;;;;;;;;;;;;;;
2021/05/06 20:38:24;;;;;;;;;;;;;;;7.02;56.67;98957.31;1670559;86;20161;-70
